createdAt,value
2017-08-11T00:01:39.095Z,101167.08
2017-08-11T00:04:06.491Z,101168.46
2017-08-11T00:06:34.258Z,101168.92
2017-08-11T00:09:01.650Z,101164.81
2017-08-11T00:11:29.049Z,101163.61
2017-08-11T00:13:56.439Z,101161.72
2017-08-11T00:16:23.840Z,101154.17
2017-08-11T00:18:51.233Z,101147.72
2017-08-11T00:21:18.631Z,101146.68
2017-08-11T00:23:46.039Z,101144.47
2017-08-11T00:26:13.423Z,101161.27
2017-08-11T00:28:40.814Z,101160.69
2017-08-11T00:31:08.203Z,101169.05
2017-08-11T00:33:35.606Z,101178.47
2017-08-11T00:36:03.004Z,101174.86
2017-08-11T00:38:30.679Z,101172.37
2017-08-11T00:40:58.082Z,101168.46
2017-08-11T00:43:25.482Z,101163.95
2017-08-11T00:45:52.890Z,101154.52
2017-08-11T00:48:20.296Z,101146.61
2017-08-11T00:50:47.674Z,101154.56
2017-08-11T00:53:15.074Z,101149.55
2017-08-11T00:55:42.471Z,101145.31
2017-08-11T00:58:09.870Z,101130.38
2017-08-11T01:00:37.246Z,101131.86
2017-08-11T01:03:04.643Z,101119.64
2017-08-11T01:05:32.039Z,101104.43
2017-08-11T01:07:59.439Z,101107.59
2017-08-11T01:10:26.821Z,101116.48
2017-08-11T01:12:54.221Z,101125.30
2017-08-11T01:15:21.606Z,101123.73
2017-08-11T01:17:49.019Z,101121.50
2017-08-11T01:20:16.415Z,101108.45
2017-08-11T01:22:43.806Z,101102.38
2017-08-11T01:25:11.199Z,101091.16
2017-08-11T01:27:38.890Z,101088.98
2017-08-11T01:30:06.284Z,101084.41
2017-08-11T01:32:33.682Z,101088.48
2017-08-11T01:35:01.078Z,101093.48
2017-08-11T01:37:28.462Z,101100.80
2017-08-11T01:39:55.860Z,101097.82
2017-08-11T01:42:23.254Z,101096.41
2017-08-11T01:44:50.654Z,101099.09
2017-08-11T01:47:18.042Z,101087.39
2017-08-11T01:49:45.458Z,101087.23
2017-08-11T01:52:12.854Z,101088.41
2017-08-11T01:54:40.250Z,101095.02
2017-08-11T01:57:07.638Z,101096.08
2017-08-11T01:59:35.036Z,101081.63
2017-08-11T02:02:02.436Z,101068.73
2017-08-11T02:04:29.826Z,101066.64
2017-08-11T02:06:57.259Z,101060.66
2017-08-11T02:09:24.646Z,101065.36
2017-08-11T02:11:52.043Z,101066.95
2017-08-11T02:14:19.447Z,101061.43
2017-08-11T02:16:46.837Z,101058.28
2017-08-11T02:19:14.251Z,101054.42
2017-08-11T02:21:41.659Z,101061.13
2017-08-11T02:24:09.067Z,101051.95
2017-08-11T02:26:36.726Z,101053.79
2017-08-11T02:29:04.118Z,101046.21
2017-08-11T02:31:31.527Z,101039.05
2017-08-11T02:33:58.910Z,101039.29
2017-08-11T02:36:26.311Z,101028.91
2017-08-11T02:38:53.704Z,101023.53
2017-08-11T02:41:21.102Z,101020.33
2017-08-11T02:43:48.502Z,101026.77
2017-08-11T02:46:15.904Z,101029.52
2017-08-11T02:48:43.291Z,101027.56
2017-08-11T02:51:10.688Z,101016.80
2017-08-11T02:53:38.092Z,101022.17
2017-08-11T02:56:05.495Z,101013.75
2017-08-11T02:58:32.895Z,101018.64
2017-08-11T03:01:00.301Z,101016.47
2017-08-11T03:03:27.674Z,101017.23
2017-08-11T03:05:55.310Z,101025.31
2017-08-11T03:08:22.711Z,101024.39
2017-08-11T03:10:50.106Z,101026.94
2017-08-11T03:13:17.502Z,101031.15
2017-08-11T03:15:44.899Z,101028.80
2017-08-11T03:18:12.295Z,101031.50
2017-08-11T03:20:39.700Z,101032.34
2017-08-11T03:23:07.090Z,101033.95
2017-08-11T03:25:34.495Z,101031.41
2017-08-11T03:28:01.886Z,101031.08
2017-08-11T03:30:29.289Z,101028.97
2017-08-11T03:32:56.678Z,101024.17
2017-08-11T03:35:24.086Z,101020.55
2017-08-11T03:37:51.484Z,101023.30
2017-08-11T03:40:18.867Z,101023.45
2017-08-11T03:42:46.269Z,101020.23
2017-08-11T03:45:13.650Z,101019.67
2017-08-11T03:47:41.060Z,101014.05
2017-08-11T03:50:08.443Z,101010.98
2017-08-11T03:52:35.842Z,101010.63
2017-08-11T03:55:03.238Z,101003.56
2017-08-11T03:57:30.634Z,101005.36
2017-08-11T03:59:58.573Z,101002.48
2017-08-11T04:02:25.954Z,101000.73
2017-08-11T04:04:53.350Z,101000.78
2017-08-11T04:07:20.750Z,100991.75
2017-08-11T04:09:48.182Z,100994.22
2017-08-11T04:12:15.582Z,100983.66
2017-08-11T04:14:42.980Z,100986.39
2017-08-11T04:17:10.390Z,100985.92
2017-08-11T04:19:37.795Z,100985.52
2017-08-11T04:22:05.191Z,100989.98
2017-08-11T04:24:32.922Z,100981.48
2017-08-11T04:27:00.322Z,100984.12
2017-08-11T04:29:27.731Z,100975.70
2017-08-11T04:31:55.150Z,100975.28
2017-08-11T04:34:22.560Z,100959.98
2017-08-11T04:36:49.969Z,100962.59
2017-08-11T04:39:17.355Z,100965.47
2017-08-11T04:41:44.761Z,100966.70
2017-08-11T04:44:12.280Z,100965.64
2017-08-11T04:46:39.670Z,100970.34
2017-08-11T04:49:07.066Z,100966.13
2017-08-11T04:51:34.461Z,100963.42
2017-08-11T04:54:01.854Z,100965.83
2017-08-11T04:56:29.250Z,100964.10
2017-08-11T04:58:56.647Z,100962.44
2017-08-11T05:01:24.038Z,100965.55
2017-08-11T05:03:51.464Z,100962.10
2017-08-11T05:06:19.151Z,100969.64
2017-08-11T05:08:46.548Z,100964.05
2017-08-11T05:11:13.955Z,100964.30
2017-08-11T05:13:41.347Z,100964.61
2017-08-11T05:16:08.746Z,100965.22
2017-08-11T05:18:36.157Z,100969.55
2017-08-11T05:21:03.537Z,100964.39
2017-08-11T05:23:30.942Z,100967.48
2017-08-11T05:25:58.333Z,100969.12
2017-08-11T05:28:25.742Z,100971.47
2017-08-11T05:30:53.131Z,100973.64
2017-08-11T05:33:20.526Z,100979.05
2017-08-11T05:35:47.941Z,100981.28
2017-08-11T05:38:15.324Z,100983.05
2017-08-11T05:40:42.726Z,100981.25
2017-08-11T05:43:10.115Z,100982.98
2017-08-11T05:45:37.514Z,100989.78
2017-08-11T05:48:04.910Z,100979.17
2017-08-11T05:50:32.341Z,100985.70
2017-08-11T05:52:59.743Z,100985.91
2017-08-11T05:55:27.145Z,100991.52
2017-08-11T05:57:54.547Z,100983.97
2017-08-11T06:00:21.955Z,100978.82
2017-08-11T06:02:49.358Z,100989.31
2017-08-11T06:05:16.758Z,100984.39
2017-08-11T06:07:44.150Z,100979.73
2017-08-11T06:10:11.534Z,100977.56
2017-08-11T06:12:38.940Z,100981.99
2017-08-11T06:15:06.335Z,100987.98
2017-08-11T06:17:33.733Z,100986.56
2017-08-11T06:20:01.349Z,100985.27
2017-08-11T06:22:28.733Z,100988.62
2017-08-11T06:24:56.122Z,100979.66
2017-08-11T06:27:23.523Z,100972.92
2017-08-11T06:29:50.930Z,100974.63
2017-08-11T06:32:18.322Z,100977.23
2017-08-11T06:34:45.708Z,100964.36
2017-08-11T06:37:13.110Z,100966.99
2017-08-11T06:39:40.499Z,100975.23
2017-08-11T06:42:07.922Z,100973.59
2017-08-11T06:44:35.306Z,100973.36
2017-08-11T06:47:02.703Z,100973.21
2017-08-11T06:49:30.116Z,100974.36
2017-08-11T06:51:57.498Z,100963.27
2017-08-11T06:54:24.903Z,100966.35
2017-08-11T06:56:52.315Z,100965.16
2017-08-11T06:59:19.703Z,100967.08
2017-08-11T07:01:47.095Z,100962.43
2017-08-11T07:04:14.499Z,100960.06
2017-08-11T07:06:41.919Z,100965.86
2017-08-11T07:09:09.323Z,100961.74
2017-08-11T07:11:36.715Z,100963.16
2017-08-11T07:14:04.119Z,100952.78
2017-08-11T07:16:31.523Z,100951.10
2017-08-11T07:18:58.915Z,100941.98
2017-08-11T07:21:26.330Z,100940.84
2017-08-11T07:23:53.737Z,100947.75
2017-08-11T07:26:21.153Z,100947.20
2017-08-11T07:28:48.533Z,100947.52
2017-08-11T07:31:15.929Z,100931.95
2017-08-11T07:33:43.338Z,100931.31
2017-08-11T07:36:10.738Z,100925.17
2017-08-11T07:38:38.145Z,100921.92
2017-08-11T07:41:05.543Z,100929.25
2017-08-11T07:43:32.950Z,100927.08
2017-08-11T07:46:00.341Z,100933.33
2017-08-11T07:48:27.752Z,100934.09
2017-08-11T07:50:55.161Z,100924.98
2017-08-11T07:53:22.563Z,100924.41
2017-08-11T07:55:49.963Z,100913.55
2017-08-11T07:58:17.355Z,100913.51
2017-08-11T08:00:44.759Z,100914.92
2017-08-11T08:03:12.154Z,100908.95
2017-08-11T08:05:39.554Z,100900.94
2017-08-11T08:08:06.966Z,100908.53
2017-08-11T08:10:34.370Z,100901.22
2017-08-11T08:13:01.766Z,100902.06
2017-08-11T08:15:29.171Z,100903.02
2017-08-11T08:17:56.576Z,100901.72
2017-08-11T08:20:23.978Z,100901.42
2017-08-11T08:22:51.474Z,100906.94
2017-08-11T08:25:18.880Z,100921.78
2017-08-11T08:27:46.277Z,100919.11
2017-08-11T08:30:13.678Z,100925.44
2017-08-11T08:32:41.070Z,100921.39
2017-08-11T08:35:08.482Z,100925.81
2017-08-11T08:37:35.887Z,100923.99
2017-08-11T08:40:03.287Z,100923.91
2017-08-11T08:42:30.679Z,100923.72
2017-08-11T08:44:58.260Z,100923.63
2017-08-11T08:47:25.658Z,100926.00
2017-08-11T08:49:53.063Z,100930.05
2017-08-11T08:52:20.638Z,100932.27
2017-08-11T08:54:48.060Z,100940.65
2017-08-11T08:57:15.443Z,100938.16
2017-08-11T08:59:42.846Z,100941.64
2017-08-11T09:02:10.270Z,100939.85
2017-08-11T09:04:37.678Z,100947.17
2017-08-11T09:07:05.090Z,100948.48
2017-08-11T09:09:32.488Z,100954.97
2017-08-11T09:11:59.882Z,100948.07
2017-08-11T09:14:27.301Z,100948.41
2017-08-11T09:16:54.702Z,100947.38
2017-08-11T09:19:22.116Z,100938.73
2017-08-11T09:21:49.593Z,100936.58
2017-08-11T09:24:29.047Z,100940.41
2017-08-11T09:27:08.059Z,100934.06
2017-08-11T09:29:47.179Z,100931.38
2017-08-11T09:32:39.414Z,100930.67
2017-08-11T09:35:18.473Z,100920.28
2017-08-11T09:37:45.926Z,100919.50
2017-08-11T09:40:13.335Z,100917.84
2017-08-11T09:42:40.726Z,100927.72
2017-08-11T09:45:08.145Z,100924.38
2017-08-11T09:47:35.534Z,100933.72
2017-08-11T09:50:02.941Z,100935.16
2017-08-11T09:52:30.335Z,100935.31
2017-08-11T09:54:57.751Z,100939.81
2017-08-11T09:57:25.145Z,100938.50
2017-08-11T09:59:52.553Z,100939.44
2017-08-11T10:02:19.946Z,100939.05
2017-08-11T10:04:47.346Z,100940.66
2017-08-11T10:07:14.746Z,100942.19
2017-08-11T10:09:42.142Z,100943.33
2017-08-11T10:12:09.692Z,100943.87
2017-08-11T10:14:37.078Z,100936.72
2017-08-11T10:17:04.471Z,100936.30
2017-08-11T10:19:31.891Z,100931.83
2017-08-11T10:21:59.467Z,100936.28
2017-08-11T10:24:26.867Z,100942.05
2017-08-11T10:26:54.282Z,100942.77
2017-08-11T10:29:21.677Z,100942.38
2017-08-11T10:31:49.258Z,100933.72
2017-08-11T10:34:16.651Z,100939.12
2017-08-11T10:36:44.056Z,100946.02
2017-08-11T10:39:11.451Z,100938.73
2017-08-11T10:41:38.850Z,100939.27
2017-08-11T10:44:06.259Z,100946.81
2017-08-11T10:46:33.658Z,100939.14
2017-08-11T10:49:01.051Z,100940.44
2017-08-11T10:51:28.447Z,100937.29
2017-08-11T10:53:55.834Z,100928.44
2017-08-11T10:56:23.243Z,100929.14
2017-08-11T10:58:50.638Z,100917.40
2017-08-11T11:01:18.044Z,100919.67
2017-08-11T11:03:45.455Z,100910.89
2017-08-11T11:06:12.859Z,100904.02
2017-08-11T11:08:40.259Z,100895.94
2017-08-11T11:11:07.679Z,100893.85
2017-08-11T11:13:35.072Z,100885.37
2017-08-11T11:16:02.482Z,100879.12
2017-08-11T11:18:29.886Z,100874.98
2017-08-11T11:20:57.299Z,100873.72
2017-08-11T11:23:24.786Z,100863.92
2017-08-11T11:25:54.017Z,100864.42
2017-08-11T11:28:21.567Z,100859.60
2017-08-11T11:30:49.019Z,100853.91
2017-08-11T11:33:16.427Z,100852.12
2017-08-11T11:35:43.833Z,100851.22
2017-08-11T11:38:11.407Z,100851.56
2017-08-11T11:40:38.819Z,100847.86
2017-08-11T11:43:06.210Z,100844.37
2017-08-11T11:45:33.611Z,100840.62
2017-08-11T11:48:01.006Z,100839.18
2017-08-11T11:50:28.398Z,100821.43
2017-08-11T11:52:55.798Z,100827.77
2017-08-11T11:55:23.189Z,100824.73
2017-08-11T11:57:50.590Z,100817.45
2017-08-11T12:00:18.053Z,100816.46
2017-08-11T12:02:45.440Z,100821.62
2017-08-11T12:05:12.856Z,100825.09
2017-08-11T12:07:40.249Z,100814.58
2017-08-11T12:10:07.647Z,100823.23
2017-08-11T12:12:35.034Z,100815.74
2017-08-11T12:15:02.456Z,100816.58
2017-08-11T12:17:30.024Z,100819.84
2017-08-11T12:19:57.407Z,100823.41
2017-08-11T12:22:24.814Z,100826.38
2017-08-11T12:24:52.222Z,100815.88
2017-08-11T12:27:19.783Z,100831.25
2017-08-11T12:29:47.183Z,100828.38
2017-08-11T12:32:14.579Z,100823.26
2017-08-11T12:34:41.984Z,100832.28
2017-08-11T12:37:09.383Z,100835.69
2017-08-11T12:39:36.783Z,100838.39
2017-08-11T12:42:04.179Z,100836.48
2017-08-11T12:44:31.567Z,100830.41
2017-08-11T12:46:59.784Z,100833.77
2017-08-11T12:49:27.175Z,100834.93
2017-08-11T12:51:54.567Z,100841.83
2017-08-11T12:54:21.956Z,100845.41
2017-08-11T12:56:49.366Z,100845.02
2017-08-11T12:59:16.746Z,100844.10
2017-08-11T13:01:44.198Z,100843.87
2017-08-11T13:04:11.587Z,100850.23
2017-08-11T13:06:38.999Z,100855.97
2017-08-11T13:09:06.399Z,100856.39
2017-08-11T13:11:33.778Z,100853.22
2017-08-11T13:14:01.179Z,100862.91
2017-08-11T13:16:28.570Z,100859.16
2017-08-11T13:18:56.011Z,100863.46
2017-08-11T13:21:23.463Z,100867.00
2017-08-11T13:23:50.861Z,100871.27
2017-08-11T13:26:18.253Z,100864.82
2017-08-11T13:28:45.663Z,100858.31
2017-08-11T13:31:13.072Z,100858.12
2017-08-11T13:33:40.475Z,100854.44
2017-08-11T13:36:07.879Z,100846.64
2017-08-11T13:38:35.258Z,100850.35
2017-08-11T13:41:03.467Z,100852.33
2017-08-11T13:43:30.874Z,100854.11
2017-08-11T13:45:58.274Z,100842.78
2017-08-11T13:48:25.672Z,100833.42
2017-08-11T13:50:53.066Z,100835.84
2017-08-11T13:53:20.470Z,100841.92
2017-08-11T13:55:47.890Z,100829.96
2017-08-11T13:58:15.288Z,100831.77
2017-08-11T14:00:42.683Z,100824.05
2017-08-11T14:03:10.075Z,100826.56
2017-08-11T14:05:37.470Z,100815.05
2017-08-11T14:08:04.854Z,100813.87
2017-08-11T14:10:32.247Z,100802.64
2017-08-11T14:12:59.632Z,100799.87
2017-08-11T14:15:27.039Z,100801.62
2017-08-11T14:17:54.442Z,100806.19
2017-08-11T14:20:21.869Z,100820.20
2017-08-11T14:22:49.273Z,100816.22
2017-08-11T14:25:16.674Z,100820.00
2017-08-11T14:27:44.093Z,100811.74
2017-08-11T14:30:11.488Z,100818.27
2017-08-11T14:32:38.894Z,100811.59
2017-08-11T14:35:06.303Z,100817.05
2017-08-11T14:37:33.690Z,100828.08
2017-08-11T14:40:01.079Z,100816.68
2017-08-11T14:42:28.518Z,100809.47
2017-08-11T14:44:55.898Z,100807.28
2017-08-11T14:47:24.144Z,100812.10
2017-08-11T14:49:51.531Z,100812.48
2017-08-11T14:52:18.918Z,100819.38
2017-08-11T14:54:46.311Z,100812.43
2017-08-11T14:57:13.715Z,100806.15
2017-08-11T14:59:41.104Z,100806.25
2017-08-11T15:02:08.506Z,100800.42
2017-08-11T15:04:35.939Z,100792.41
2017-08-11T15:07:03.335Z,100781.79
2017-08-11T15:09:30.759Z,100775.25
2017-08-11T15:11:58.167Z,100780.02
2017-08-11T15:14:25.607Z,100778.72
2017-08-11T15:16:53.002Z,100783.30
2017-08-11T15:19:20.394Z,100783.56
2017-08-11T15:21:47.797Z,100781.50
2017-08-11T15:24:15.187Z,100766.80
2017-08-11T15:26:42.587Z,100765.91
2017-08-11T15:29:09.975Z,100766.91
2017-08-11T15:31:37.466Z,100762.72
2017-08-11T15:34:04.873Z,100763.52
2017-08-11T15:36:32.267Z,100770.91
2017-08-11T15:38:59.659Z,100776.06
2017-08-11T15:41:27.059Z,100780.55
2017-08-11T15:43:54.453Z,100787.14
2017-08-11T15:46:21.847Z,100792.48
2017-08-11T15:48:49.236Z,100798.38
2017-08-11T15:51:16.694Z,100789.53
2017-08-11T15:53:44.078Z,100793.25
2017-08-11T15:56:11.478Z,100800.97
2017-08-11T15:58:38.886Z,100804.42
2017-08-11T16:01:06.299Z,100803.83
2017-08-11T16:03:33.713Z,100799.51
2017-08-11T16:06:01.083Z,100797.38
2017-08-11T16:08:28.482Z,100788.42
2017-08-11T16:10:55.875Z,100787.73
2017-08-11T16:13:23.267Z,100780.91
2017-08-11T16:15:50.958Z,100781.44
2017-08-11T16:18:18.348Z,100781.82
2017-08-11T16:20:45.743Z,100778.70
2017-08-11T16:23:13.135Z,100784.54
2017-08-11T16:25:40.527Z,100783.17
2017-08-11T16:28:07.928Z,100769.23
2017-08-11T16:30:35.317Z,100766.39
2017-08-11T16:33:02.722Z,100762.84
2017-08-11T16:35:30.114Z,100760.70
2017-08-11T16:37:57.516Z,100757.70
2017-08-11T16:40:24.906Z,100756.16
2017-08-11T16:42:52.304Z,100760.70
2017-08-11T16:45:19.690Z,100759.05
2017-08-11T16:47:47.095Z,100758.28
2017-08-11T16:50:14.491Z,100759.51
2017-08-11T16:52:41.890Z,100757.88
2017-08-11T16:55:09.282Z,100749.73
2017-08-11T16:57:36.694Z,100747.52
2017-08-11T17:00:04.111Z,100740.42
2017-08-11T17:02:31.513Z,100741.63
2017-08-11T17:04:58.923Z,100743.51
2017-08-11T17:07:26.323Z,100743.42
2017-08-11T17:09:53.713Z,100743.77
2017-08-11T17:12:21.109Z,100747.89
2017-08-11T17:14:48.502Z,100742.79
2017-08-11T17:17:15.895Z,100745.06
2017-08-11T17:19:43.294Z,100740.28
2017-08-11T17:22:10.697Z,100745.51
2017-08-11T17:24:38.085Z,100750.51
2017-08-11T17:27:05.474Z,100742.99
2017-08-11T17:29:32.866Z,100742.40
2017-08-11T17:32:00.250Z,100737.66
2017-08-11T17:34:27.639Z,100723.71
2017-08-11T17:36:55.028Z,100722.30
2017-08-11T17:39:22.411Z,100724.45
2017-08-11T17:41:49.795Z,100728.78
2017-08-11T17:44:17.202Z,100718.87
2017-08-11T17:46:44.587Z,100724.45
2017-08-11T17:49:12.275Z,100732.57
2017-08-11T17:51:39.661Z,100730.34
2017-08-11T17:54:07.047Z,100715.02
2017-08-11T17:56:34.434Z,100696.93
2017-08-11T17:59:01.831Z,100688.28
2017-08-11T18:01:29.227Z,100691.41
2017-08-11T18:03:56.619Z,100687.98
2017-08-11T18:06:24.007Z,100679.00
2017-08-11T18:08:51.399Z,100669.86
2017-08-11T18:11:19.007Z,100658.22
2017-08-11T18:13:46.403Z,100657.42
2017-08-11T18:16:13.865Z,100646.48
2017-08-11T18:18:41.319Z,100645.01
2017-08-11T18:21:08.761Z,100646.64
2017-08-11T18:23:36.211Z,100649.99
2017-08-11T18:26:03.603Z,100653.69
2017-08-11T18:28:30.989Z,100654.97
2017-08-11T18:30:58.378Z,100666.01
2017-08-11T18:33:25.766Z,100666.41
2017-08-11T18:35:53.154Z,100674.72
2017-08-11T18:38:20.583Z,100672.58
2017-08-11T18:40:47.986Z,100668.13
2017-08-11T18:43:15.598Z,100661.41
2017-08-11T18:45:42.990Z,100655.66
2017-08-11T18:48:10.385Z,100653.20
2017-08-11T18:50:37.788Z,100649.38
2017-08-11T18:53:05.182Z,100639.92
2017-08-11T18:55:32.570Z,100650.31
2017-08-11T18:57:59.978Z,100658.80
2017-08-11T19:00:27.379Z,100657.97
2017-08-11T19:02:54.766Z,100657.23
2017-08-11T19:05:22.166Z,100651.65
2017-08-11T19:07:49.556Z,100645.19
2017-08-11T19:10:16.944Z,100636.13
2017-08-11T19:12:44.337Z,100645.00
2017-08-11T19:15:11.755Z,100651.09
2017-08-11T19:17:39.156Z,100660.30
2017-08-11T19:20:06.558Z,100667.69
2017-08-11T19:22:34.190Z,100676.59
2017-08-11T19:25:01.583Z,100676.63
2017-08-11T19:27:28.972Z,100671.18
2017-08-11T19:29:56.361Z,100669.38
2017-08-11T19:32:23.754Z,100671.95
2017-08-11T19:34:51.152Z,100666.90
2017-08-11T19:37:18.542Z,100668.45
2017-08-11T19:39:46.186Z,100675.69
2017-08-11T19:42:13.574Z,100674.83
2017-08-11T19:44:40.974Z,100672.56
2017-08-11T19:47:08.661Z,100671.39
2017-08-11T19:49:36.328Z,100668.77
2017-08-11T19:52:03.708Z,100663.13
2017-08-11T19:54:31.098Z,100661.84
2017-08-11T19:56:58.770Z,100663.13
2017-08-11T19:59:26.171Z,100654.20
2017-08-11T20:01:53.555Z,100656.97
2017-08-11T20:04:20.957Z,100656.78
2017-08-11T20:06:48.352Z,100647.70
2017-08-11T20:09:15.736Z,100649.93
2017-08-11T20:11:43.153Z,100658.50
2017-08-11T20:14:10.537Z,100664.05
2017-08-11T20:16:37.951Z,100664.98
2017-08-11T20:19:05.342Z,100665.02
2017-08-11T20:21:32.769Z,100671.97
2017-08-11T20:24:00.153Z,100678.63
2017-08-11T20:26:27.551Z,100676.33
2017-08-11T20:28:55.218Z,100677.25
2017-08-11T20:31:22.639Z,100673.62
2017-08-11T20:33:50.042Z,100664.33
2017-08-11T20:36:17.430Z,100658.27
2017-08-11T20:38:44.830Z,100656.70
2017-08-11T20:41:12.280Z,100663.47
2017-08-11T20:43:39.694Z,100655.33
2017-08-11T20:46:07.094Z,100650.97
2017-08-11T20:48:34.487Z,100651.52
2017-08-11T20:51:01.879Z,100650.31
2017-08-11T20:53:29.296Z,100655.81
2017-08-11T20:55:56.678Z,100658.83
2017-08-11T20:58:24.083Z,100657.39
2017-08-11T21:00:51.483Z,100645.56
2017-08-11T21:03:18.887Z,100635.58
2017-08-11T21:05:46.279Z,100635.81
2017-08-11T21:08:13.687Z,100636.09
2017-08-11T21:10:41.372Z,100643.36
2017-08-11T21:13:08.771Z,100649.94
2017-08-11T21:15:36.162Z,100654.63
2017-08-11T21:18:03.571Z,100658.19
2017-08-11T21:20:30.972Z,100663.97
2017-08-11T21:22:58.425Z,100660.08
2017-08-11T21:25:25.835Z,100666.70
2017-08-11T21:27:53.238Z,100668.97
2017-08-11T21:30:20.644Z,100671.20
2017-08-11T21:32:48.043Z,100670.80
2017-08-11T21:35:15.454Z,100673.16
2017-08-11T21:37:42.859Z,100680.53
2017-08-11T21:40:10.262Z,100685.39
2017-08-11T21:42:37.667Z,100688.45
2017-08-11T21:45:05.069Z,100690.94
2017-08-11T21:47:32.458Z,100679.35
2017-08-11T21:49:59.882Z,100691.34
2017-08-11T21:52:27.270Z,100694.41
2017-08-11T21:54:54.686Z,100691.16
2017-08-11T21:57:22.296Z,100688.20
2017-08-11T21:59:49.687Z,100681.27
2017-08-11T22:02:17.095Z,100675.52
2017-08-11T22:04:44.591Z,100669.87
2017-08-11T22:07:11.999Z,100670.72
2017-08-11T22:09:39.399Z,100673.67
2017-08-11T22:12:06.836Z,100679.07
2017-08-11T22:14:34.231Z,100683.17
2017-08-11T22:17:01.641Z,100681.64
2017-08-11T22:19:29.043Z,100684.45
2017-08-11T22:21:56.447Z,100684.37
2017-08-11T22:24:23.852Z,100686.09
2017-08-11T22:26:51.260Z,100686.30
2017-08-11T22:29:18.651Z,100687.25
2017-08-11T22:31:46.049Z,100681.08
2017-08-11T22:34:13.451Z,100683.75
2017-08-11T22:36:40.871Z,100690.44
2017-08-11T22:39:08.259Z,100686.21
2017-08-11T22:41:36.441Z,100681.58
2017-08-11T22:44:03.853Z,100672.64
2017-08-11T22:46:31.246Z,100673.77
2017-08-11T22:48:58.655Z,100673.67
2017-08-11T22:51:26.053Z,100673.78
2017-08-11T22:53:53.453Z,100678.41
2017-08-11T22:56:20.851Z,100682.16
2017-08-11T22:58:48.259Z,100681.30
2017-08-11T23:01:15.658Z,100680.05
2017-08-11T23:03:43.067Z,100684.47
2017-08-11T23:06:10.458Z,100679.69
2017-08-11T23:08:37.866Z,100689.44
2017-08-11T23:11:05.263Z,100691.27
2017-08-11T23:13:32.664Z,100679.15
2017-08-11T23:16:00.059Z,100681.05
2017-08-11T23:18:27.454Z,100670.32
2017-08-11T23:20:54.859Z,100666.94
2017-08-11T23:23:22.266Z,100660.73
2017-08-11T23:25:49.669Z,100654.95
2017-08-11T23:28:17.062Z,100647.31
2017-08-11T23:30:44.478Z,100650.11
2017-08-11T23:33:11.879Z,100645.39
2017-08-11T23:35:39.278Z,100644.30
2017-08-11T23:38:06.670Z,100647.61
2017-08-11T23:40:34.074Z,100646.53
2017-08-11T23:43:01.527Z,100640.33
2017-08-11T23:45:28.935Z,100640.58
2017-08-11T23:47:56.353Z,100642.16
2017-08-11T23:50:23.754Z,100649.56
2017-08-11T23:52:51.150Z,100647.10
2017-08-11T23:55:18.571Z,100644.16
2017-08-11T23:57:45.958Z,100644.88
